createdAt,value
2023-04-17T00:02:15.771Z,7.71
2023-04-17T00:04:42.772Z,7.67
2023-04-17T00:07:09.406Z,7.65
2023-04-17T00:09:36.035Z,7.67
2023-04-17T00:12:03.010Z,7.68
2023-04-17T00:14:29.690Z,7.67
2023-04-17T00:16:56.185Z,7.64
2023-04-17T00:19:22.711Z,7.60
2023-04-17T00:21:49.142Z,7.52
2023-04-17T00:24:15.613Z,7.47
2023-04-17T00:26:42.009Z,7.42
2023-04-17T00:29:08.567Z,7.37
2023-04-17T00:31:35.591Z,7.34
2023-04-17T00:34:02.113Z,7.29
2023-04-17T00:36:31.729Z,7.28
2023-04-17T00:38:59.051Z,7.28
2023-04-17T00:41:25.711Z,7.28
2023-04-17T00:43:52.174Z,7.27
2023-04-17T00:46:18.793Z,7.23
2023-04-17T00:48:45.570Z,7.23
2023-04-17T00:51:12.309Z,7.25
2023-04-17T00:53:39.200Z,7.20
2023-04-17T00:56:06.627Z,7.19
2023-04-17T00:58:35.250Z,7.19
2023-04-17T01:01:01.745Z,7.13
2023-04-17T01:03:30.103Z,7.11
2023-04-17T01:05:57.087Z,7.07
2023-04-17T01:08:23.493Z,7.07
2023-04-17T01:10:49.894Z,7.05
2023-04-17T01:13:16.353Z,7.06
2023-04-17T01:15:43.100Z,7.09
2023-04-17T01:18:09.588Z,7.11
2023-04-17T01:20:36.255Z,7.12
2023-04-17T01:23:02.669Z,7.12
2023-04-17T01:25:29.262Z,7.13
2023-04-17T01:27:56.393Z,7.17
2023-04-17T01:30:22.920Z,7.15
2023-04-17T01:32:49.663Z,7.14
2023-04-17T01:35:16.111Z,7.13
2023-04-17T01:37:42.487Z,7.13
2023-04-17T01:40:09.648Z,7.17
2023-04-17T01:42:36.310Z,7.16
2023-04-17T01:45:03.115Z,7.14
2023-04-17T01:47:29.710Z,7.14
2023-04-17T01:49:56.148Z,7.16
2023-04-17T01:52:22.565Z,7.17
2023-04-17T01:54:49.057Z,7.16
2023-04-17T01:57:15.430Z,7.13
2023-04-17T01:59:41.848Z,7.11
2023-04-17T02:02:08.439Z,7.11
2023-04-17T02:04:35.003Z,7.10
2023-04-17T02:07:01.453Z,7.11
2023-04-17T02:09:27.862Z,7.12
2023-04-17T02:11:54.271Z,7.11
2023-04-17T02:14:21.691Z,7.08
2023-04-17T02:16:48.297Z,7.08
2023-04-17T02:19:14.717Z,7.06
2023-04-17T02:21:41.109Z,7.06
2023-04-17T02:24:07.590Z,7.05
2023-04-17T02:26:34.327Z,7.08
2023-04-17T02:29:01.081Z,7.09
2023-04-17T02:31:27.604Z,7.09
2023-04-17T02:33:54.069Z,7.09
2023-04-17T02:36:20.462Z,7.06
2023-04-17T02:38:47.050Z,7.08
2023-04-17T02:41:13.447Z,7.06
2023-04-17T02:43:40.002Z,7.07
2023-04-17T02:46:06.482Z,7.07
2023-04-17T02:48:32.892Z,7.05
2023-04-17T02:50:59.298Z,7.04
2023-04-17T02:53:25.682Z,6.99
2023-04-17T02:55:52.116Z,6.99
2023-04-17T02:58:18.776Z,7.00
2023-04-17T03:00:45.240Z,6.99
2023-04-17T03:03:11.894Z,6.98
2023-04-17T03:05:38.461Z,6.99
2023-04-17T03:08:05.242Z,6.95
2023-04-17T03:10:31.749Z,6.95
2023-04-17T03:12:58.156Z,6.94
2023-04-17T03:15:24.624Z,6.95
2023-04-17T03:17:51.044Z,6.97
2023-04-17T03:20:17.864Z,6.98
2023-04-17T03:22:44.244Z,6.97
2023-04-17T03:25:11.123Z,6.97
2023-04-17T03:27:38.685Z,6.94
2023-04-17T03:30:06.272Z,6.94
2023-04-17T03:32:33.106Z,6.94
2023-04-17T03:34:59.555Z,6.93
2023-04-17T03:37:25.945Z,6.93
2023-04-17T03:39:52.592Z,6.92
2023-04-17T03:42:19.017Z,6.91
2023-04-17T03:44:45.517Z,6.90
2023-04-17T03:47:11.992Z,6.91
2023-04-17T03:49:38.492Z,6.90
2023-04-17T03:52:05.309Z,6.88
2023-04-17T03:54:35.323Z,6.89
2023-04-17T03:57:03.416Z,6.90
2023-04-17T03:59:31.447Z,6.86
2023-04-17T04:01:58.120Z,6.88
2023-04-17T04:04:25.070Z,6.87
2023-04-17T04:06:54.511Z,6.87
2023-04-17T04:09:21.459Z,6.88
2023-04-17T04:11:48.094Z,6.85
2023-04-17T04:14:14.765Z,6.86
2023-04-17T04:16:41.403Z,6.86
2023-04-17T04:19:07.928Z,6.86
2023-04-17T04:21:34.535Z,6.85
2023-04-17T04:24:01.056Z,6.86
2023-04-17T04:26:27.501Z,6.85
2023-04-17T04:28:54.129Z,6.86
2023-04-17T04:31:21.188Z,6.82
2023-04-17T04:33:47.780Z,6.81
2023-04-17T04:36:14.507Z,6.82
2023-04-17T04:38:40.898Z,6.82
2023-04-17T04:41:10.166Z,6.83
2023-04-17T04:43:37.100Z,6.85
2023-04-17T04:46:03.958Z,6.86
2023-04-17T04:48:30.439Z,6.84
2023-04-17T04:50:57.064Z,6.80
2023-04-17T04:53:23.698Z,6.78
2023-04-17T04:55:50.319Z,6.77
2023-04-17T04:58:16.706Z,6.80
2023-04-17T05:00:43.686Z,6.77
2023-04-17T05:03:10.431Z,6.77
2023-04-17T05:05:37.785Z,6.77
2023-04-17T05:08:04.554Z,6.78
2023-04-17T05:10:31.381Z,6.81
2023-04-17T05:12:58.037Z,6.79
2023-04-17T05:15:24.505Z,6.76
2023-04-17T05:17:51.267Z,6.82
2023-04-17T05:20:18.783Z,6.77
2023-04-17T05:22:45.543Z,6.76
2023-04-17T05:25:12.023Z,6.77
2023-04-17T05:27:38.410Z,6.78
2023-04-17T05:30:05.614Z,6.76
2023-04-17T05:32:32.172Z,6.75
2023-04-17T05:34:58.572Z,6.77
2023-04-17T05:37:24.991Z,6.80
2023-04-17T05:39:51.708Z,6.81
2023-04-17T05:42:18.146Z,6.84
2023-04-17T05:44:44.584Z,6.86
2023-04-17T05:47:10.976Z,6.86
2023-04-17T05:49:37.336Z,6.88
2023-04-17T05:52:04.472Z,6.90
2023-04-17T05:54:30.963Z,6.92
2023-04-17T05:56:57.429Z,6.94
2023-04-17T05:59:23.828Z,6.95
2023-04-17T06:01:50.932Z,7.01
2023-04-17T06:04:18.213Z,6.98
2023-04-17T06:06:45.126Z,6.97
2023-04-17T06:09:11.959Z,6.98
2023-04-17T06:11:38.574Z,6.96
2023-04-17T06:14:04.968Z,6.94
2023-04-17T06:16:31.499Z,6.98
2023-04-17T06:18:58.273Z,6.97
2023-04-17T06:21:24.750Z,6.97
2023-04-17T06:23:52.012Z,6.95
2023-04-17T06:26:18.549Z,6.99
2023-04-17T06:28:44.945Z,6.98
2023-04-17T06:31:12.183Z,7.00
2023-04-17T06:33:38.820Z,7.02
2023-04-17T06:36:06.771Z,6.91
2023-04-17T06:38:33.457Z,6.85
2023-04-17T06:40:59.874Z,6.81
2023-04-17T06:43:26.288Z,6.78
2023-04-17T06:45:53.079Z,6.76
2023-04-17T06:48:19.528Z,6.76
2023-04-17T06:50:46.038Z,6.75
2023-04-17T06:53:12.451Z,6.77
2023-04-17T06:55:39.108Z,6.76
2023-04-17T06:58:08.302Z,6.77
2023-04-17T07:00:34.909Z,6.88
2023-04-17T07:03:02.014Z,6.95
2023-04-17T07:05:28.692Z,7.02
2023-04-17T07:07:55.526Z,7.14
2023-04-17T07:10:21.987Z,7.14
2023-04-17T07:12:48.450Z,7.22
2023-04-17T07:15:15.066Z,7.30
2023-04-17T07:17:41.817Z,7.40
2023-04-17T07:20:09.453Z,7.47
2023-04-17T07:22:35.887Z,7.52
2023-04-17T07:25:02.574Z,7.52
2023-04-17T07:27:29.029Z,7.47
2023-04-17T07:29:55.688Z,7.37
2023-04-17T07:32:24.717Z,7.36
2023-04-17T07:34:51.179Z,7.48
2023-04-17T07:37:17.772Z,7.56
2023-04-17T07:39:44.989Z,7.57
2023-04-17T07:42:11.505Z,7.60
2023-04-17T07:44:41.044Z,7.63
2023-04-17T07:47:07.690Z,7.68
2023-04-17T07:49:34.344Z,7.71
2023-04-17T07:52:00.892Z,7.70
2023-04-17T07:54:27.387Z,7.66
2023-04-17T07:56:58.400Z,7.65
2023-04-17T07:59:24.863Z,7.69
2023-04-17T08:01:52.603Z,7.71
2023-04-17T08:04:19.360Z,7.69
2023-04-17T08:06:46.055Z,7.74
2023-04-17T08:09:12.544Z,7.79
2023-04-17T08:11:53.481Z,7.81
2023-04-17T08:14:23.641Z,7.92
2023-04-17T08:16:50.486Z,7.91
2023-04-17T08:19:17.067Z,7.99
2023-04-17T08:21:43.499Z,8.01
2023-04-17T08:24:09.965Z,7.98
2023-04-17T08:26:36.683Z,7.94
2023-04-17T08:29:04.585Z,7.97
2023-04-17T08:31:31.749Z,7.99
2023-04-17T08:34:12.982Z,8.06
2023-04-17T08:36:41.199Z,8.16
2023-04-17T08:39:10.066Z,8.14
2023-04-17T08:41:45.221Z,8.24
2023-04-17T08:44:11.971Z,8.40
2023-04-17T08:46:38.953Z,8.58
2023-04-17T08:49:05.614Z,8.68
2023-04-17T08:51:32.719Z,8.72
2023-04-17T08:53:59.130Z,8.78
2023-04-17T08:56:25.679Z,8.92
2023-04-17T08:58:52.214Z,9.15
2023-04-17T09:01:20.539Z,9.17
2023-04-17T09:03:48.522Z,9.21
2023-04-17T09:06:15.931Z,9.40
2023-04-17T09:09:00.407Z,9.64
2023-04-17T09:11:27.451Z,10.02
2023-04-17T09:13:54.296Z,10.35
2023-04-17T09:16:21.218Z,10.16
2023-04-17T09:18:48.306Z,10.06
2023-04-17T09:21:18.767Z,10.03
2023-04-17T09:23:55.353Z,10.01
2023-04-17T09:26:25.813Z,9.88
2023-04-17T09:29:08.843Z,9.52
2023-04-17T09:31:36.169Z,9.44
2023-04-17T09:34:07.882Z,9.40
2023-04-17T09:36:38.431Z,9.50
2023-04-17T09:39:18.132Z,9.70
2023-04-17T09:41:44.848Z,9.82
2023-04-17T09:44:12.424Z,10.03
2023-04-17T09:46:41.378Z,10.04
2023-04-17T09:49:15.528Z,9.96
2023-04-17T09:51:42.675Z,9.83
2023-04-17T09:54:11.399Z,9.77
2023-04-17T09:56:38.952Z,9.82
2023-04-17T09:59:06.366Z,9.86
2023-04-17T10:01:34.417Z,9.90
2023-04-17T10:04:02.791Z,10.00
2023-04-17T10:06:31.493Z,10.13
2023-04-17T10:08:58.248Z,10.23
2023-04-17T10:11:27.457Z,10.30
2023-04-17T10:14:10.132Z,10.55
2023-04-17T10:16:43.505Z,10.66
2023-04-17T10:19:31.854Z,10.73
2023-04-17T10:22:19.514Z,11.02
2023-04-17T10:24:48.393Z,11.03
2023-04-17T10:27:31.855Z,11.17
2023-04-17T10:30:00.768Z,11.29
2023-04-17T10:32:29.357Z,11.77
2023-04-17T10:35:06.477Z,11.95
2023-04-17T10:37:48.374Z,12.17
2023-04-17T10:40:21.238Z,12.27
2023-04-17T10:43:05.970Z,12.15
2023-04-17T10:45:54.375Z,12.33
2023-04-17T10:48:26.451Z,12.40
2023-04-17T10:50:52.948Z,12.24
2023-04-17T10:53:43.203Z,12.20
2023-04-17T10:56:11.887Z,12.25
2023-04-17T10:58:39.972Z,12.76
2023-04-17T11:01:10.227Z,12.86
2023-04-17T11:03:37.781Z,12.88
2023-04-17T11:06:06.189Z,13.23
2023-04-17T11:08:32.726Z,13.27
2023-04-17T11:10:59.202Z,13.61
2023-04-17T11:13:25.701Z,13.51
2023-04-17T11:15:52.220Z,13.52
2023-04-17T11:18:21.471Z,13.78
2023-04-17T11:20:49.914Z,13.85
2023-04-17T11:23:16.428Z,13.96
2023-04-17T11:25:43.852Z,13.84
2023-04-17T11:28:11.557Z,13.99
2023-04-17T11:30:42.146Z,14.22
2023-04-17T11:33:09.044Z,14.13
2023-04-17T11:35:38.300Z,14.12
2023-04-17T11:38:21.730Z,14.75
2023-04-17T11:40:58.828Z,14.85
2023-04-17T11:43:25.948Z,14.52
2023-04-17T11:45:57.744Z,14.39
2023-04-17T11:48:26.432Z,14.35
2023-04-17T11:51:03.619Z,14.14
2023-04-17T11:53:30.656Z,14.15
2023-04-17T11:56:17.263Z,14.38
2023-04-17T11:58:51.688Z,14.20
2023-04-17T12:01:19.774Z,14.27
2023-04-17T12:03:49.936Z,14.24
2023-04-17T12:06:16.787Z,14.68
2023-04-17T12:08:50.060Z,14.97
2023-04-17T12:11:28.927Z,14.96
2023-04-17T12:13:56.353Z,14.94
2023-04-17T12:16:27.096Z,15.05
2023-04-17T12:18:54.414Z,15.26
2023-04-17T12:21:21.734Z,15.28
2023-04-17T12:23:48.220Z,15.24
2023-04-17T12:26:15.294Z,15.29
2023-04-17T12:28:42.134Z,15.29
2023-04-17T12:31:08.787Z,15.26
2023-04-17T12:33:35.256Z,15.39
2023-04-17T12:36:03.828Z,15.67
2023-04-17T12:38:31.194Z,15.63
2023-04-17T12:40:57.933Z,15.48
2023-04-17T12:43:24.510Z,14.80
2023-04-17T12:45:52.747Z,14.36
2023-04-17T12:48:19.431Z,14.51
2023-04-17T12:50:45.928Z,14.71
2023-04-17T12:53:15.691Z,14.75
2023-04-17T12:55:44.338Z,14.74
2023-04-17T12:58:13.159Z,14.79
2023-04-17T13:00:43.230Z,14.72
2023-04-17T13:03:10.620Z,14.70
2023-04-17T13:05:37.269Z,14.71
2023-04-17T13:08:03.751Z,14.54
2023-04-17T13:10:30.381Z,14.75
2023-04-17T13:12:59.724Z,15.00
2023-04-17T13:15:26.185Z,14.93
2023-04-17T13:17:52.792Z,14.75
2023-04-17T13:20:19.495Z,15.10
2023-04-17T13:22:46.005Z,15.33
2023-04-17T13:25:12.403Z,15.48
2023-04-17T13:27:38.840Z,15.80
2023-04-17T13:30:06.223Z,15.60
2023-04-17T13:32:35.256Z,15.64
2023-04-17T13:35:02.901Z,16.01
2023-04-17T13:37:29.377Z,16.15
2023-04-17T13:39:55.885Z,16.15
2023-04-17T13:42:22.444Z,16.09
2023-04-17T13:44:49.517Z,15.60
2023-04-17T13:47:16.073Z,14.99
2023-04-17T13:49:43.563Z,14.83
2023-04-17T13:52:10.129Z,14.85
2023-04-17T13:54:36.559Z,15.12
2023-04-17T13:57:03.098Z,15.51
2023-04-17T13:59:29.520Z,15.83
2023-04-17T14:01:56.336Z,15.81
2023-04-17T14:04:23.188Z,16.04
2023-04-17T14:06:50.884Z,15.99
2023-04-17T14:09:17.775Z,15.60
2023-04-17T14:11:44.177Z,15.40
2023-04-17T14:14:12.633Z,15.18
2023-04-17T14:16:40.650Z,14.98
2023-04-17T14:19:13.871Z,14.86
2023-04-17T14:21:41.136Z,14.69
2023-04-17T14:24:07.835Z,14.74
2023-04-17T14:26:34.309Z,14.91
2023-04-17T14:29:01.282Z,15.24
2023-04-17T14:31:27.968Z,15.29
2023-04-17T14:33:55.886Z,15.51
2023-04-17T14:36:22.332Z,15.77
2023-04-17T14:38:51.574Z,15.79
2023-04-17T14:41:18.391Z,15.87
2023-04-17T14:43:44.893Z,15.85
2023-04-17T14:46:12.001Z,15.96
2023-04-17T14:48:52.206Z,15.88
2023-04-17T14:53:48.648Z,15.62
2023-04-17T14:56:16.054Z,15.46
2023-04-17T14:58:43.419Z,15.28
2023-04-17T15:01:10.346Z,15.00
2023-04-17T15:03:37.386Z,14.74
2023-04-17T15:06:04.304Z,14.62
2023-04-17T15:08:31.201Z,14.59
2023-04-17T15:10:58.586Z,14.62
2023-04-17T15:13:25.086Z,14.58
2023-04-17T15:15:51.768Z,14.46
2023-04-17T15:18:18.237Z,14.34
2023-04-17T15:20:44.635Z,14.26
2023-04-17T15:23:11.445Z,14.22
2023-04-17T15:25:38.221Z,14.13
2023-04-17T15:28:07.599Z,14.13
2023-04-17T15:30:34.017Z,14.24
2023-04-17T15:33:00.773Z,14.27
2023-04-17T15:35:27.194Z,14.69
2023-04-17T15:37:53.675Z,15.10
2023-04-17T15:40:20.298Z,15.30
2023-04-17T15:42:46.923Z,15.37
2023-04-17T15:45:13.704Z,15.57
2023-04-17T15:47:40.168Z,15.50
2023-04-17T15:50:08.091Z,15.71
2023-04-17T15:52:34.711Z,15.88
2023-04-17T15:55:01.133Z,16.01
2023-04-17T15:57:27.757Z,15.94
2023-04-17T15:59:54.174Z,16.01
2023-04-17T16:02:21.249Z,16.13
2023-04-17T16:04:48.021Z,15.82
2023-04-17T16:07:15.561Z,15.70
2023-04-17T16:09:44.260Z,15.84
2023-04-17T16:12:10.998Z,15.64
2023-04-17T16:14:37.901Z,15.24
2023-04-17T16:17:04.497Z,15.16
2023-04-17T16:19:32.060Z,15.04
2023-04-17T16:21:58.740Z,15.03
2023-04-17T16:24:25.862Z,15.04
2023-04-17T16:27:00.988Z,15.14
2023-04-17T16:29:27.780Z,15.32
2023-04-17T16:31:55.483Z,15.35
2023-04-17T16:34:22.183Z,15.54
2023-04-17T16:36:49.439Z,15.67
2023-04-17T16:39:16.081Z,15.77
2023-04-17T16:41:43.587Z,15.83
2023-04-17T16:44:10.256Z,15.66
2023-04-17T16:46:58.687Z,15.42
2023-04-17T16:49:23.374Z,15.34
2023-04-17T16:51:49.869Z,15.16
2023-04-17T16:54:16.305Z,15.08
2023-04-17T16:56:43.018Z,15.16
2023-04-17T16:59:09.431Z,15.03
2023-04-17T17:01:35.981Z,14.92
2023-04-17T17:04:02.492Z,14.93
2023-04-17T17:06:29.670Z,14.90
2023-04-17T17:08:56.102Z,14.88
2023-04-17T17:11:22.851Z,14.77
2023-04-17T17:13:51.623Z,14.73
2023-04-17T17:16:20.940Z,14.70
2023-04-17T17:18:48.184Z,14.66
2023-04-17T17:21:15.288Z,14.54
2023-04-17T17:23:41.944Z,14.56
2023-04-17T17:26:08.527Z,14.51
2023-04-17T17:28:37.814Z,14.52
2023-04-17T17:31:07.593Z,14.42
2023-04-17T17:33:35.583Z,14.30
2023-04-17T17:36:02.784Z,14.22
2023-04-17T17:38:30.627Z,14.14
2023-04-17T17:40:57.090Z,14.07
2023-04-17T17:43:23.694Z,14.05
2023-04-17T17:45:50.776Z,13.98
2023-04-17T17:48:18.178Z,13.95
2023-04-17T17:50:44.636Z,13.94
2023-04-17T17:53:11.210Z,13.83
2023-04-17T17:55:38.100Z,13.71
2023-04-17T17:58:05.408Z,13.64
2023-04-17T18:00:32.034Z,13.59
2023-04-17T18:02:59.236Z,13.49
2023-04-17T18:05:25.828Z,13.42
2023-04-17T18:07:52.312Z,13.31
2023-04-17T18:10:18.840Z,13.23
2023-04-17T18:12:45.411Z,13.15
2023-04-17T18:15:11.910Z,13.02
2023-04-17T18:17:38.393Z,12.90
2023-04-17T18:20:05.075Z,12.82
2023-04-17T18:22:31.557Z,12.73
2023-04-17T18:24:57.977Z,12.64
2023-04-17T18:27:24.450Z,12.55
2023-04-17T18:29:50.965Z,12.45
2023-04-17T18:32:18.405Z,12.33
2023-04-17T18:34:48.929Z,12.22
2023-04-17T18:37:17.839Z,12.14
2023-04-17T18:39:44.610Z,12.14
2023-04-17T18:42:11.013Z,12.02
2023-04-17T18:44:37.475Z,11.94
2023-04-17T18:47:03.967Z,11.81
2023-04-17T18:49:30.514Z,11.71
2023-04-17T18:51:56.975Z,11.64
2023-04-17T18:54:24.180Z,11.53
2023-04-17T18:56:50.863Z,11.43
2023-04-17T18:59:19.782Z,11.34
2023-04-17T19:01:46.354Z,11.24
2023-04-17T19:04:13.217Z,11.18
2023-04-17T19:06:40.133Z,11.11
2023-04-17T19:09:06.627Z,11.03
2023-04-17T19:11:33.517Z,11.00
2023-04-17T19:14:00.045Z,10.93
2023-04-17T19:16:26.578Z,10.90
2023-04-17T19:18:53.031Z,10.84
2023-04-17T19:21:19.428Z,10.78
2023-04-17T19:23:47.405Z,10.72
2023-04-17T19:26:15.780Z,10.66
2023-04-17T19:28:42.481Z,10.65
2023-04-17T19:31:09.681Z,10.61
2023-04-17T19:33:36.332Z,10.58
2023-04-17T19:36:05.669Z,10.58
2023-04-17T19:38:32.256Z,10.58
2023-04-17T19:41:17.365Z,10.53
2023-04-17T19:43:49.705Z,10.48
2023-04-17T19:46:16.818Z,10.40
2023-04-17T19:48:44.798Z,10.36
2023-04-17T19:51:12.646Z,10.30
2023-04-17T19:53:40.871Z,10.24
2023-04-17T19:56:08.781Z,10.27
2023-04-17T19:58:35.950Z,10.23
2023-04-17T20:01:02.388Z,10.15
2023-04-17T20:03:30.171Z,10.19
2023-04-17T20:05:57.620Z,10.13
2023-04-17T20:08:24.901Z,10.12
2023-04-17T20:10:51.459Z,10.07
2023-04-17T20:13:17.975Z,10.02
2023-04-17T20:15:44.406Z,9.99
2023-04-17T20:18:11.707Z,9.94
2023-04-17T20:20:39.080Z,9.91
2023-04-17T20:23:05.790Z,9.94
2023-04-17T20:25:32.226Z,9.93
2023-04-17T20:27:58.660Z,9.89
2023-04-17T20:30:25.499Z,9.81
2023-04-17T20:32:52.071Z,9.73
2023-04-17T20:35:20.898Z,9.68
2023-04-17T20:37:47.425Z,9.64
2023-04-17T20:40:14.267Z,9.61
2023-04-17T20:42:42.155Z,9.53
2023-04-17T20:45:09.698Z,9.46
2023-04-17T20:47:38.176Z,9.42
2023-04-17T20:50:08.349Z,9.37
2023-04-17T20:52:35.606Z,9.27
2023-04-17T20:55:02.118Z,9.22
2023-04-17T20:57:29.298Z,9.20
2023-04-17T20:59:55.812Z,9.17
2023-04-17T21:02:22.442Z,9.13
2023-04-17T21:04:49.184Z,9.07
2023-04-17T21:07:16.485Z,9.01
2023-04-17T21:09:42.922Z,8.93
2023-04-17T21:12:09.306Z,8.87
2023-04-17T21:14:36.646Z,8.85
2023-04-17T21:17:03.153Z,8.79
2023-04-17T21:19:30.814Z,8.75
2023-04-17T21:21:58.458Z,8.70
2023-04-17T21:24:25.299Z,8.69
2023-04-17T21:26:53.277Z,8.65
2023-04-17T21:29:19.731Z,8.60
2023-04-17T21:31:46.294Z,8.56
2023-04-17T21:34:13.100Z,8.49
2023-04-17T21:36:39.579Z,8.45
2023-04-17T21:39:07.039Z,8.40
2023-04-17T21:41:33.672Z,8.34
2023-04-17T21:44:02.454Z,8.33
2023-04-17T21:46:29.270Z,8.28
2023-04-17T21:48:55.979Z,8.22
2023-04-17T21:51:23.112Z,8.18
2023-04-17T21:53:49.635Z,8.16
2023-04-17T21:56:16.074Z,8.12
2023-04-17T21:58:42.518Z,8.11
2023-04-17T22:01:09.010Z,8.05
2023-04-17T22:03:35.592Z,8.04
2023-04-17T22:06:02.023Z,8.03
2023-04-17T22:08:28.463Z,8.01
2023-04-17T22:10:54.884Z,7.99
2023-04-17T22:13:21.278Z,7.97
2023-04-17T22:15:48.505Z,7.98
2023-04-17T22:18:15.762Z,7.98
2023-04-17T22:20:42.434Z,7.99
2023-04-17T22:23:08.929Z,8.00
2023-04-17T22:25:35.341Z,7.99
2023-04-17T22:28:01.781Z,7.94
2023-04-17T22:30:28.164Z,7.81
2023-04-17T22:32:54.707Z,7.82
2023-04-17T22:35:21.220Z,7.82
2023-04-17T22:37:47.638Z,7.81
2023-04-17T22:40:14.084Z,7.76
2023-04-17T22:42:40.479Z,7.72
2023-04-17T22:45:07.232Z,7.80
2023-04-17T22:47:33.673Z,7.72
2023-04-17T22:50:00.153Z,7.71
2023-04-17T22:52:26.617Z,7.69
2023-04-17T22:54:53.770Z,7.63
2023-04-17T22:57:20.235Z,7.56
2023-04-17T22:59:46.670Z,7.57
2023-04-17T23:02:13.098Z,7.48
2023-04-17T23:04:40.676Z,7.43
2023-04-17T23:07:07.118Z,7.42
2023-04-17T23:09:33.560Z,7.38
2023-04-17T23:12:00.005Z,7.39
2023-04-17T23:14:28.386Z,7.38
2023-04-17T23:16:54.792Z,7.37
2023-04-17T23:19:22.401Z,7.32
2023-04-17T23:21:48.938Z,7.28
2023-04-17T23:24:15.435Z,7.23
2023-04-17T23:26:41.981Z,7.17
2023-04-17T23:29:08.395Z,7.13
2023-04-17T23:31:36.956Z,7.10
2023-04-17T23:34:03.458Z,7.05
2023-04-17T23:36:30.516Z,7.05
2023-04-17T23:38:56.915Z,7.02
2023-04-17T23:41:23.307Z,6.95
2023-04-17T23:43:51.281Z,6.86
2023-04-17T23:46:17.705Z,6.81
2023-04-17T23:48:44.119Z,6.77
2023-04-17T23:51:10.568Z,6.83
2023-04-17T23:53:36.956Z,6.87
2023-04-17T23:56:04.237Z,6.83
2023-04-17T23:58:30.613Z,6.74
